createdAt,value
2019-04-04T00:04:23.392Z,44.37
2019-04-04T00:14:28.682Z,44.90
2019-04-04T00:24:34.059Z,46.00
2019-04-04T00:34:39.411Z,47.14
2019-04-04T00:44:44.887Z,47.46
2019-04-04T00:54:50.219Z,47.54
2019-04-04T01:04:55.611Z,48.10
2019-04-04T01:15:01.004Z,48.15
2019-04-04T01:25:10.735Z,48.80
2019-04-04T01:35:16.145Z,49.34
2019-04-04T01:45:21.393Z,50.23
2019-04-04T01:55:26.638Z,50.02
2019-04-04T02:05:32.105Z,50.23
2019-04-04T02:15:37.479Z,50.35
2019-04-04T02:25:42.594Z,50.32
2019-04-04T02:35:48.026Z,50.52
2019-04-04T02:45:53.249Z,50.96
2019-04-04T02:56:02.308Z,51.06
2019-04-04T03:06:05.543Z,50.72
2019-04-04T03:16:10.761Z,51.36
2019-04-04T03:26:19.024Z,52.38
2019-04-04T03:36:22.739Z,53.75
2019-04-04T03:46:27.987Z,54.30
2019-04-04T03:56:38.965Z,54.80
2019-04-04T04:06:42.115Z,55.18
2019-04-04T04:16:47.092Z,55.76
2019-04-04T04:26:52.665Z,55.40
2019-04-04T04:36:57.990Z,54.93
2019-04-04T04:47:03.288Z,54.20
2019-04-04T04:57:08.882Z,52.96
2019-04-04T05:07:14.391Z,49.92
2019-04-04T05:17:19.895Z,48.85
2019-04-04T05:27:25.067Z,48.17
2019-04-04T05:37:30.723Z,49.58
2019-04-04T05:47:36.117Z,50.27
2019-04-04T05:57:41.693Z,51.00
2019-04-04T06:07:47.206Z,49.77
2019-04-04T06:17:52.562Z,47.10
2019-04-04T06:27:58.402Z,46.38
2019-04-04T06:38:03.965Z,46.71
2019-04-04T06:48:09.401Z,43.40
2019-04-04T06:58:17.007Z,46.50
2019-04-04T07:08:22.602Z,47.64
2019-04-04T07:18:27.851Z,47.59
2019-04-04T07:28:33.729Z,42.09
2019-04-04T07:38:39.136Z,43.06
2019-04-04T07:48:44.564Z,41.32
2019-04-04T07:58:50.285Z,43.25
2019-04-04T08:08:55.681Z,34.84
2019-04-04T08:19:01.402Z,32.14
2019-04-04T08:29:07.240Z,32.06
2019-04-04T08:39:13.520Z,33.42
2019-04-04T08:49:19.042Z,35.78
2019-04-04T08:59:24.841Z,33.97
2019-04-04T09:09:30.612Z,31.82
2019-04-04T09:19:36.443Z,32.57
2019-04-04T09:29:42.120Z,30.25
2019-04-04T09:39:47.763Z,27.32
2019-04-04T09:49:53.401Z,29.60
2019-04-04T09:59:59.082Z,27.47
2019-04-04T10:10:08.122Z,28.68
2019-04-04T10:20:14.004Z,26.78
2019-04-04T10:30:20.960Z,28.62
2019-04-04T10:40:26.643Z,27.66
2019-04-04T10:50:32.114Z,25.58
2019-04-04T11:00:38.783Z,26.67
2019-04-04T11:10:45.182Z,26.65
2019-04-04T11:20:50.486Z,25.79
2019-04-04T11:30:56.127Z,25.45
2019-04-04T11:41:01.711Z,26.02
2019-04-04T11:51:06.994Z,26.42
2019-04-04T12:01:16.047Z,25.56
2019-04-04T12:11:22.765Z,26.97
2019-04-04T12:21:28.646Z,26.84
2019-04-04T12:31:34.364Z,27.75
2019-04-04T12:41:40.067Z,27.80
2019-04-04T12:51:45.632Z,27.54
2019-04-04T13:01:51.108Z,27.89
2019-04-04T13:11:57.014Z,28.24
2019-04-04T13:22:02.326Z,29.15
2019-04-04T13:32:07.899Z,30.67
2019-04-04T13:42:13.448Z,29.27
2019-04-04T13:52:18.807Z,30.56
2019-04-04T14:02:24.266Z,31.32
2019-04-04T14:12:29.828Z,31.03
2019-04-04T14:22:35.534Z,31.28
2019-04-04T14:32:41.176Z,31.47
2019-04-04T14:42:46.587Z,31.84
2019-04-04T14:52:52.422Z,32.87
2019-04-04T15:02:57.942Z,34.00
2019-04-04T15:13:03.586Z,34.08
2019-04-04T15:23:09.305Z,33.96
2019-04-04T15:33:15.840Z,34.77
2019-04-04T15:43:21.204Z,34.98
2019-04-04T15:53:26.848Z,34.86
2019-04-04T16:03:32.769Z,34.97
2019-04-04T16:13:38.488Z,35.36
2019-04-04T16:23:43.908Z,35.08
2019-04-04T16:33:49.535Z,36.00
2019-04-04T16:43:55.280Z,35.59
2019-04-04T16:54:00.746Z,36.43
2019-04-04T17:04:06.426Z,37.30
2019-04-04T17:14:12.126Z,38.25
2019-04-04T17:24:17.848Z,38.75
2019-04-04T17:34:24.027Z,39.54
2019-04-04T17:44:29.835Z,39.67
2019-04-04T17:54:37.318Z,39.78
2019-04-04T18:04:48.525Z,39.54
2019-04-04T18:14:50.943Z,40.11
2019-04-04T18:24:56.592Z,40.50
2019-04-04T18:35:02.509Z,41.43
2019-04-04T18:45:08.726Z,41.80
2019-04-04T18:55:19.983Z,41.69
2019-04-04T19:05:22.103Z,41.69
2019-04-04T19:15:27.710Z,41.35
2019-04-04T19:25:33.587Z,41.55
2019-04-04T19:35:39.410Z,41.61
2019-04-04T19:45:45.205Z,42.18
2019-04-04T19:55:50.828Z,42.61
2019-04-04T20:05:56.746Z,43.62
2019-04-04T20:16:02.516Z,44.49
2019-04-04T20:26:08.295Z,45.34
2019-04-04T20:36:14.107Z,46.16
2019-04-04T20:46:19.887Z,46.76
2019-04-04T20:56:25.725Z,47.59
2019-04-04T21:06:31.397Z,47.67
2019-04-04T21:16:36.920Z,48.45
2019-04-04T21:26:42.366Z,49.09
2019-04-04T21:36:47.768Z,49.85
2019-04-04T21:46:53.318Z,50.60
2019-04-04T21:56:58.948Z,50.99
2019-04-04T22:07:04.466Z,51.55
2019-04-04T22:17:10.926Z,52.57
2019-04-04T22:27:16.310Z,53.05
2019-04-04T22:37:22.024Z,53.80
2019-04-04T22:47:27.290Z,54.39
2019-04-04T22:57:32.806Z,54.86
2019-04-04T23:07:38.055Z,55.61
2019-04-04T23:17:45.460Z,55.61
2019-04-04T23:27:50.866Z,55.98
2019-04-04T23:37:56.487Z,55.15
2019-04-04T23:48:01.976Z,55.23
2019-04-04T23:58:07.565Z,55.98
